Annecy-Haute-Savoie-Mont Blanc Airport

Airport
ICAO code: 
LFLP
IATA Code: 
NCY
Summary
ICAO Region: 
EUR
Territory: 
Location: 
, Rhone-Alpes
Serving: 
Annecy
Elevation: 
1521 ft
Coordinates: 
Aerial View: 
45° 55' 45.239" N, 6° 5' 55.55" E
Metar
Observation
LFLP 240700Z AUTO 00000KT 4200 BR NSC M06/M07 Q1031 TEMPO BKN014 BECMG 9999 NSW
Station
ANNECY/MEYTHET
Date/Time
2022-01-24 07:00:00
Wind direction
Wind speed
00 kts
Lowest cloud amount
broken clouds
Temperature
-6°C
Dew point
-7°C
Humidity
92%
QNH
1031 hPa
Weather condition
n/a

Runways

Designator Length Width Surface Rops
4/22 1630 30 ASP Yes/Yes
Airport map: 
Aerial View: 

SKYbrary Partners:

Safety knowledge contributed by: